• Join FlightAware (Why Join?)
  • Login
  • US Flag 
04:35PM EDT


 

Airport Tracker/Info


-or-


 

Live Flight TrackerFlight Track Log ✈ N83WD ✈ 01-Aug-2013 ✈ KDTN - KGGG

Flight Track Log - Related Links

Times and Time Zones

All times are in EDT time to prevent confusion due to time zone crossing. See the N83WD flight status page for this flight to view local times or setup timezone preferences in your user account.

Time Position Orientation Groundspeed Altitude Reporting Facility
EDT Latitude Longitude Course Direction KTS MPH feet Rate Location/Type
10:34AM 32.4872 -93.8006 259° West 156 180 1,600  Level Fort Worth Center
10:35AM 32.4886 -93.8522 272° West 159 183 1,800 240 Climbing Fort Worth Center
10:36AM 32.4900 -93.8989 272° West 144 166 2,100 300 Climbing Fort Worth Center
10:37AM 32.4892 -93.9431 269° West 135 155 2,500 360 Climbing Fort Worth Center
10:38AM 32.4944 -93.9872 278° West 139 160 2,900 420 Climbing Fort Worth Center
10:39AM 32.4969 -94.0181 259° West  Level Estimated
10:39AM 32.4978 -94.0339 275° West 141 162 3,400  Level Fort Worth Center
10:40AM 32.5011 -94.0733 276° West 141 162 3,700 360 Climbing Fort Worth Center
10:41AM 32.5106 -94.1197 284° West 146 168 4,200 480 Climbing Fort Worth Center
10:42AM 32.5119 -94.1689 272° West 138 159 4,700 480 Climbing Fort Worth Center
10:44AM 32.4786 -94.2125 228° Southwest  Level FlightAware Approximate
10:51AM 32.4109 -94.4870 258° West  Level FlightAware Approximate
10:52AM 32.4036 -94.5257 257° West  Level FlightAware Approximate
10:53AM 32.3963 -94.5644 257° West  Level FlightAware Approximate
10:54AM 32.3890 -94.6031 257° West  Level FlightAware Approximate
10:55AM 32.3833 -94.6420 270° West  Level FlightAware Approximate
10:56AM 32.3833 -94.6816 270° West  Level FlightAware Approximate
10:57AM 32.3833 -94.7000 270° West  Level FlightAware Approximate
10:58AM 32.3840 -94.7115 270° West  Level Estimated
10:59AM 32.3840 -94.7115 270° West  Level Estimated
11:00AM 32.3840 -94.7115 270° West  Level Estimated
11:01AM 32.3840 -94.7115 270° West  Level Estimated
11:02AM 32.3840 -94.7115 270° West  Level Estimated
11:03AM 32.3840 -94.7115 270° West  Level Estimated
11:04AM 32.3840 -94.7115 270° West  Level Estimated
11:05AM 32.3840 -94.7115 270° West  Level Estimated
11:06AM 32.3840 -94.7115 270° West  Level Estimated
11:07AM 32.3840 -94.7115 270° West  Level Estimated
11:08AM 32.3840 -94.7115 270° West  Level Estimated
11:09AM 32.3840 -94.7115 270° West  Level Estimated
11:10AM 32.3840 -94.7115 270° West  Level Estimated